createdAt,value
2018-09-21T00:00:57.298Z,21.90
2018-09-21T00:03:26.337Z,21.80
2018-09-21T00:05:55.301Z,21.70
2018-09-21T00:08:24.341Z,21.50
2018-09-21T00:10:53.265Z,21.90
2018-09-21T00:13:22.250Z,21.60
2018-09-21T00:15:51.265Z,21.60
2018-09-21T00:18:20.354Z,21.40
2018-09-21T00:20:49.546Z,21.70
2018-09-21T00:23:18.594Z,21.80
2018-09-21T00:25:47.654Z,21.80
2018-09-21T00:28:16.894Z,21.90
2018-09-21T00:30:45.969Z,22.00
2018-09-21T00:33:15.149Z,21.90
2018-09-21T00:35:44.087Z,21.30
2018-09-21T00:38:13.105Z,21.60
2018-09-21T00:40:41.978Z,21.80
2018-09-21T00:43:11.398Z,21.40
2018-09-21T00:45:40.413Z,21.40
2018-09-21T00:48:09.449Z,21.80
2018-09-21T00:50:38.649Z,21.90
2018-09-21T00:53:07.807Z,21.80
2018-09-21T00:55:36.982Z,21.90
2018-09-21T00:58:06.178Z,22.00
2018-09-21T01:00:35.123Z,22.10
2018-09-21T01:03:04.090Z,21.60
2018-09-21T01:05:33.267Z,21.80
2018-09-21T01:08:02.309Z,21.70
2018-09-21T01:10:31.282Z,21.70
2018-09-21T01:13:00.326Z,21.60
2018-09-21T01:15:29.294Z,21.60
2018-09-21T01:17:58.306Z,21.40
2018-09-21T01:20:27.337Z,21.60
2018-09-21T01:22:56.433Z,21.50
2018-09-21T01:25:25.670Z,21.70
2018-09-21T01:27:54.613Z,21.80
2018-09-21T01:30:23.674Z,21.80
2018-09-21T01:32:52.642Z,21.70
2018-09-21T01:35:21.774Z,21.50
2018-09-21T01:37:50.885Z,21.70
2018-09-21T01:40:19.894Z,21.30
2018-09-21T01:42:49.043Z,21.70
2018-09-21T01:45:18.002Z,21.50
2018-09-21T01:47:47.045Z,21.80
2018-09-21T01:50:16.012Z,21.80
2018-09-21T01:52:45.002Z,21.50
2018-09-21T01:55:13.918Z,21.60
2018-09-21T01:57:42.885Z,21.50
2018-09-21T02:00:11.930Z,21.60
2018-09-21T02:02:40.857Z,21.60
2018-09-21T02:05:09.706Z,21.70
2018-09-21T02:07:38.714Z,21.60
2018-09-21T02:10:07.750Z,21.60
2018-09-21T02:12:36.669Z,21.70
2018-09-21T02:15:05.762Z,21.80
2018-09-21T02:17:34.814Z,22.00
2018-09-21T02:20:03.782Z,21.80
2018-09-21T02:22:32.737Z,21.90
2018-09-21T02:25:01.750Z,21.90
2018-09-21T02:27:30.667Z,21.80
2018-09-21T02:29:59.653Z,21.80
2018-09-21T02:32:28.693Z,21.90
2018-09-21T02:34:57.667Z,22.10
2018-09-21T02:37:26.604Z,22.00
2018-09-21T02:39:55.569Z,22.00
2018-09-21T02:42:24.602Z,21.90
2018-09-21T02:44:53.577Z,21.60
2018-09-21T02:47:22.573Z,21.90
2018-09-21T02:49:51.521Z,21.80
2018-09-21T02:52:20.609Z,22.10
2018-09-21T02:54:49.622Z,21.70
2018-09-21T02:57:18.649Z,22.00
2018-09-21T02:59:47.621Z,21.80
2018-09-21T03:02:16.791Z,21.80
2018-09-21T03:04:50.874Z,21.80
2018-09-21T03:07:19.893Z,21.60
2018-09-21T03:09:48.874Z,21.80
2018-09-21T03:12:17.896Z,21.60
2018-09-21T03:14:47.613Z,21.60
2018-09-21T03:17:16.626Z,21.60
2018-09-21T03:19:45.610Z,21.50
2018-09-21T03:22:14.535Z,21.60
2018-09-21T03:24:43.514Z,21.10
2018-09-21T03:27:12.758Z,21.30
2018-09-21T03:29:41.634Z,21.60
2018-09-21T03:32:10.618Z,21.50
2018-09-21T03:34:39.607Z,21.70
2018-09-21T03:37:08.529Z,21.60
2018-09-21T03:39:37.526Z,21.40
2018-09-21T03:42:06.440Z,21.60
2018-09-21T03:44:35.463Z,21.60
2018-09-21T03:47:04.559Z,21.80
2018-09-21T03:49:33.577Z,21.80
2018-09-21T03:52:02.562Z,21.70
2018-09-21T03:54:31.611Z,21.60
2018-09-21T03:57:00.578Z,21.60
2018-09-21T03:59:29.554Z,21.80
2018-09-21T04:01:58.678Z,21.80
2018-09-21T04:04:27.630Z,21.70
2018-09-21T04:06:56.595Z,21.80
2018-09-21T04:09:25.621Z,21.90
2018-09-21T04:11:54.670Z,22.20
2018-09-21T04:14:23.847Z,22.10
2018-09-21T04:16:52.807Z,22.10
2018-09-21T04:19:21.765Z,22.30
2018-09-21T04:21:50.734Z,22.30
2018-09-21T04:24:19.765Z,22.20
2018-09-21T04:26:48.738Z,22.30
2018-09-21T04:29:17.754Z,22.10
2018-09-21T04:31:46.757Z,22.40
2018-09-21T04:34:15.918Z,22.60
2018-09-21T04:36:44.870Z,22.40
2018-09-21T04:39:13.969Z,22.30
2018-09-21T04:41:43.161Z,22.60
2018-09-21T04:44:12.090Z,22.50
2018-09-21T04:46:41.126Z,22.50
2018-09-21T04:49:10.043Z,22.70
2018-09-21T04:51:38.984Z,22.60
2018-09-21T04:54:07.786Z,22.40
2018-09-21T04:56:36.670Z,22.30
2018-09-21T04:59:05.909Z,22.20
2018-09-21T05:01:34.942Z,22.10
2018-09-21T05:04:03.922Z,22.30
2018-09-21T05:06:32.958Z,22.30
2018-09-21T05:09:01.947Z,22.20
2018-09-21T05:11:31.042Z,22.40
2018-09-21T05:14:00.118Z,22.50
2018-09-21T05:16:29.184Z,22.60
2018-09-21T05:18:58.117Z,22.50
2018-09-21T05:21:27.149Z,22.60
2018-09-21T05:23:56.094Z,22.60
2018-09-21T05:26:25.097Z,22.50
2018-09-21T05:28:53.975Z,22.40
2018-09-21T05:31:23.025Z,22.30
2018-09-21T05:33:52.001Z,22.50
2018-09-21T05:36:20.959Z,22.30
2018-09-21T05:38:49.896Z,22.50
2018-09-21T05:41:18.962Z,22.30
2018-09-21T05:43:48.081Z,22.40
2018-09-21T05:46:17.037Z,22.40
2018-09-21T05:48:46.153Z,22.60
2018-09-21T05:51:14.975Z,22.70
2018-09-21T05:53:43.964Z,22.50
2018-09-21T05:56:12.998Z,22.70
2018-09-21T05:58:42.175Z,22.70
2018-09-21T06:01:11.144Z,23.00
2018-09-21T06:03:40.200Z,22.80
2018-09-21T06:06:09.169Z,22.60
2018-09-21T06:08:38.090Z,22.60
2018-09-21T06:11:07.029Z,22.80
2018-09-21T06:13:35.999Z,22.40
2018-09-21T06:16:04.829Z,22.70
2018-09-21T06:18:33.746Z,23.00
2018-09-21T06:21:02.774Z,22.80
2018-09-21T06:23:31.718Z,22.70
2018-09-21T06:26:00.519Z,22.90
2018-09-21T06:28:29.514Z,22.80
2018-09-21T06:30:58.549Z,22.80
2018-09-21T06:33:27.365Z,22.90
2018-09-21T06:35:56.171Z,22.50
2018-09-21T06:38:25.125Z,22.70
2018-09-21T06:40:54.105Z,23.00
2018-09-21T06:43:23.097Z,23.10
2018-09-21T06:45:52.059Z,23.00
2018-09-21T06:48:20.985Z,22.80
2018-09-21T06:50:49.868Z,23.20
2018-09-21T06:53:18.798Z,22.90
2018-09-21T06:55:47.736Z,23.00
2018-09-21T06:58:16.786Z,23.20
2018-09-21T07:00:45.838Z,22.90
2018-09-21T07:03:14.779Z,22.80
2018-09-21T07:05:43.774Z,22.70
2018-09-21T07:08:12.642Z,22.80
2018-09-21T07:10:41.882Z,23.10
2018-09-21T07:13:10.814Z,23.10
2018-09-21T07:15:39.755Z,23.10
2018-09-21T07:18:08.551Z,23.30
2018-09-21T07:20:37.450Z,23.30
2018-09-21T07:23:06.266Z,23.20
2018-09-21T07:25:35.282Z,23.00
2018-09-21T07:28:04.334Z,22.70
2018-09-21T07:30:33.691Z,22.80
2018-09-21T07:33:02.978Z,22.80
2018-09-21T07:35:31.892Z,22.80
2018-09-21T07:38:00.861Z,23.10
2018-09-21T07:40:29.859Z,22.30
2018-09-21T07:42:58.808Z,22.40
2018-09-21T07:45:27.674Z,22.30
2018-09-21T07:47:56.529Z,22.60
2018-09-21T07:50:25.627Z,22.30
2018-09-21T07:52:54.586Z,22.80
2018-09-21T07:55:23.693Z,23.00
2018-09-21T07:57:52.602Z,23.00
2018-09-21T08:00:21.668Z,22.50
2018-09-21T08:02:50.689Z,22.60
2018-09-21T08:05:23.650Z,22.60
2018-09-21T08:07:52.510Z,22.50
2018-09-21T08:10:21.250Z,22.60
2018-09-21T08:12:50.105Z,22.70
2018-09-21T08:15:19.034Z,22.60
2018-09-21T08:17:48.121Z,22.20
2018-09-21T08:20:16.995Z,23.00
2018-09-21T08:22:45.997Z,22.60
2018-09-21T08:25:14.808Z,22.60
2018-09-21T08:27:43.727Z,22.80
2018-09-21T08:30:12.697Z,22.50
2018-09-21T08:32:41.517Z,21.70
2018-09-21T08:35:10.646Z,21.50
2018-09-21T08:37:39.380Z,20.40
2018-09-21T08:40:08.669Z,20.90
2018-09-21T08:42:37.440Z,18.60
2018-09-21T08:45:07.109Z,18.90
2018-09-21T08:47:36.024Z,18.70
2018-09-21T08:50:05.106Z,18.10
2018-09-21T08:52:33.969Z,18.80
2018-09-21T08:55:03.106Z,18.30
2018-09-21T08:57:31.777Z,18.30
2018-09-21T09:00:00.607Z,17.30
2018-09-21T09:02:29.488Z,17.50
2018-09-21T09:04:58.570Z,17.90
2018-09-21T09:07:27.358Z,18.70
2018-09-21T09:09:56.226Z,17.70
2018-09-21T09:12:25.230Z,17.80
2018-09-21T09:14:53.981Z,17.00
2018-09-21T09:17:22.913Z,17.10
2018-09-21T09:19:51.802Z,17.70
2018-09-21T09:22:20.678Z,17.20
2018-09-21T09:24:49.461Z,16.80
2018-09-21T09:27:18.231Z,16.80
2018-09-21T09:29:46.941Z,16.70
2018-09-21T09:32:15.673Z,16.10
2018-09-21T09:34:44.617Z,17.10
2018-09-21T09:37:13.378Z,17.20
2018-09-21T09:39:42.211Z,18.00
2018-09-21T09:42:11.082Z,17.50
2018-09-21T09:44:40.020Z,18.20
2018-09-21T09:47:08.791Z,17.60
2018-09-21T09:49:37.593Z,17.70
2018-09-21T09:52:06.712Z,19.20
2018-09-21T09:54:35.634Z,18.00
2018-09-21T09:57:04.369Z,18.90
2018-09-21T09:59:33.434Z,19.80
2018-09-21T10:02:02.393Z,18.00
2018-09-21T10:04:31.487Z,18.10
2018-09-21T10:07:00.409Z,19.10
2018-09-21T10:09:29.350Z,19.20
2018-09-21T10:11:58.234Z,18.20
2018-09-21T10:14:27.157Z,17.70
2018-09-21T10:16:56.031Z,17.90
2018-09-21T10:19:25.001Z,18.10
2018-09-21T10:21:53.890Z,17.80
2018-09-21T10:24:22.915Z,18.70
2018-09-21T10:26:51.872Z,19.40
2018-09-21T10:29:20.694Z,19.20
2018-09-21T10:31:49.674Z,18.80
2018-09-21T10:34:18.582Z,19.80
2018-09-21T10:36:47.623Z,18.30
2018-09-21T10:39:16.737Z,18.60
2018-09-21T10:41:45.869Z,18.70
2018-09-21T10:44:14.890Z,19.10
2018-09-21T10:46:43.922Z,19.10
2018-09-21T10:49:12.844Z,19.00
2018-09-21T10:51:41.802Z,19.20
2018-09-21T10:54:10.761Z,18.90
2018-09-21T10:56:39.626Z,18.70
2018-09-21T10:59:08.669Z,19.40
2018-09-21T11:01:37.677Z,19.80
2018-09-21T11:04:06.489Z,19.70
2018-09-21T11:06:35.507Z,19.70
2018-09-21T11:09:06.370Z,19.70
2018-09-21T11:11:35.196Z,19.70
2018-09-21T11:14:04.099Z,19.60
2018-09-21T11:16:33.034Z,19.40
2018-09-21T11:19:01.686Z,18.80
2018-09-21T11:21:30.866Z,18.90
2018-09-21T11:23:59.581Z,19.50
2018-09-21T11:26:28.592Z,19.90
2018-09-21T11:28:57.549Z,18.50
2018-09-21T11:31:26.623Z,18.50
2018-09-21T11:33:55.406Z,19.50
2018-09-21T11:36:24.198Z,19.40
2018-09-21T11:38:53.351Z,19.20
2018-09-21T11:41:22.073Z,19.00
2018-09-21T11:43:50.902Z,19.40
2018-09-21T11:46:19.870Z,19.20
2018-09-21T11:48:48.716Z,19.80
2018-09-21T11:51:17.589Z,19.90
2018-09-21T11:53:46.514Z,20.10
2018-09-21T11:56:15.373Z,20.40
2018-09-21T11:58:44.132Z,19.90
2018-09-21T12:01:13.091Z,20.90
2018-09-21T12:03:42.051Z,20.10
2018-09-21T12:06:10.977Z,20.50
2018-09-21T12:08:39.925Z,20.10
2018-09-21T12:11:08.842Z,20.10
2018-09-21T12:13:37.878Z,19.70
2018-09-21T12:16:07.095Z,19.50
2018-09-21T12:18:36.011Z,19.10
2018-09-21T12:21:04.914Z,19.40
2018-09-21T12:23:33.911Z,20.10
2018-09-21T12:26:02.930Z,20.00
2018-09-21T12:28:31.763Z,19.50
2018-09-21T12:31:00.642Z,19.70
2018-09-21T12:33:29.582Z,19.10
2018-09-21T12:35:58.626Z,19.80
2018-09-21T12:38:27.585Z,19.60
2018-09-21T12:40:56.414Z,19.70
2018-09-21T12:43:25.371Z,19.90
2018-09-21T12:45:54.286Z,20.20
2018-09-21T12:48:23.203Z,19.70
2018-09-21T12:50:52.269Z,20.30
2018-09-21T12:53:21.181Z,20.50
2018-09-21T12:55:50.242Z,19.80
2018-09-21T12:58:19.291Z,19.90
2018-09-21T13:00:51.718Z,20.20
2018-09-21T13:03:21.861Z,20.30
2018-09-21T13:05:55.031Z,20.30
2018-09-21T13:08:25.135Z,20.60
2018-09-21T13:10:54.062Z,20.30
2018-09-21T13:13:22.775Z,20.70
2018-09-21T13:15:52.170Z,20.60
2018-09-21T13:18:20.885Z,20.00
2018-09-21T13:20:49.739Z,20.20
2018-09-21T13:23:18.601Z,20.10
2018-09-21T13:25:47.700Z,20.50
2018-09-21T13:28:16.381Z,20.80
2018-09-21T13:30:45.328Z,21.30
2018-09-21T13:33:14.203Z,20.10
2018-09-21T13:35:43.171Z,19.40
2018-09-21T13:38:11.956Z,19.30
2018-09-21T13:40:40.822Z,19.40
2018-09-21T13:43:09.746Z,20.00
2018-09-21T13:45:38.625Z,20.00
2018-09-21T13:48:07.609Z,20.60
2018-09-21T13:50:36.328Z,20.50
2018-09-21T13:53:05.278Z,20.70
2018-09-21T13:55:34.234Z,20.60
2018-09-21T13:58:02.954Z,21.10
2018-09-21T14:00:31.898Z,20.90
2018-09-21T14:03:00.814Z,20.90
2018-09-21T14:05:29.782Z,20.50
2018-09-21T14:07:58.627Z,20.70
2018-09-21T14:10:27.656Z,20.50
2018-09-21T14:12:56.630Z,21.00
2018-09-21T14:15:25.438Z,21.00
2018-09-21T14:17:54.505Z,21.10
2018-09-21T14:20:23.377Z,19.90
2018-09-21T14:22:52.619Z,20.30
2018-09-21T14:25:21.563Z,20.50
2018-09-21T14:27:50.542Z,20.30
2018-09-21T14:30:19.478Z,19.70
2018-09-21T14:32:48.470Z,19.50
2018-09-21T14:35:17.390Z,19.30
2018-09-21T14:37:46.306Z,20.00
2018-09-21T14:40:15.133Z,19.60
2018-09-21T14:42:44.253Z,19.50
2018-09-21T14:45:13.203Z,19.50
2018-09-21T14:47:42.265Z,20.10
2018-09-21T14:50:11.254Z,19.60
2018-09-21T14:52:40.194Z,20.00
2018-09-21T14:55:09.544Z,20.10
2018-09-21T14:57:38.556Z,19.50
2018-09-21T15:00:07.842Z,19.50
2018-09-21T15:02:36.711Z,19.50
2018-09-21T15:05:05.702Z,19.50
2018-09-21T15:07:34.510Z,20.10
2018-09-21T15:10:03.297Z,19.70
2018-09-21T15:12:32.098Z,19.60
2018-09-21T15:15:01.073Z,19.40
2018-09-21T15:17:29.862Z,20.30
2018-09-21T15:19:58.674Z,20.00
2018-09-21T15:22:27.473Z,20.30
2018-09-21T15:24:56.362Z,20.50
2018-09-21T15:27:25.279Z,19.90
2018-09-21T15:29:54.182Z,19.30
2018-09-21T15:32:23.353Z,19.70
2018-09-21T15:34:52.114Z,19.30
2018-09-21T15:37:21.091Z,19.80
2018-09-21T15:39:50.098Z,19.30
2018-09-21T15:42:19.032Z,18.80
2018-09-21T15:44:48.139Z,19.20
2018-09-21T15:47:17.002Z,19.60
2018-09-21T15:49:46.861Z,18.80
2018-09-21T15:52:15.888Z,18.70
2018-09-21T15:54:44.649Z,19.30
2018-09-21T15:57:13.578Z,19.20
2018-09-21T15:59:42.420Z,20.30
2018-09-21T16:02:11.434Z,19.40
2018-09-21T16:04:40.314Z,19.60
2018-09-21T16:07:09.224Z,19.50
2018-09-21T16:09:37.869Z,19.10
2018-09-21T16:12:06.927Z,19.50
2018-09-21T16:14:35.735Z,19.60
2018-09-21T16:17:04.646Z,19.60
2018-09-21T16:19:33.601Z,19.80
2018-09-21T16:22:02.475Z,19.40
2018-09-21T16:24:31.264Z,19.50
2018-09-21T16:27:00.077Z,19.60
2018-09-21T16:29:28.878Z,19.30
2018-09-21T16:31:57.775Z,19.20
2018-09-21T16:34:26.548Z,19.20
2018-09-21T16:36:55.414Z,19.30
2018-09-21T16:39:24.288Z,19.60
2018-09-21T16:41:53.266Z,19.30
2018-09-21T16:44:22.194Z,19.60
2018-09-21T16:46:51.150Z,19.00
2018-09-21T16:49:20.104Z,19.10
2018-09-21T16:51:49.282Z,19.20
2018-09-21T16:54:18.026Z,18.80
2018-09-21T16:56:46.937Z,19.00
2018-09-21T16:59:15.958Z,18.80
2018-09-21T17:01:44.938Z,19.00
2018-09-21T17:04:13.935Z,18.60
2018-09-21T17:06:42.912Z,18.60
2018-09-21T17:09:12.742Z,18.30
2018-09-21T17:11:41.605Z,18.30
2018-09-21T17:14:10.637Z,17.60
2018-09-21T17:16:39.518Z,18.10
2018-09-21T17:19:08.562Z,18.00
2018-09-21T17:21:37.562Z,18.50
2018-09-21T17:24:06.506Z,18.10
2018-09-21T17:26:35.531Z,18.40
2018-09-21T17:29:04.422Z,18.60
2018-09-21T17:31:33.430Z,18.80
2018-09-21T17:34:02.345Z,18.00
2018-09-21T17:36:31.241Z,18.10
2018-09-21T17:39:00.533Z,17.60
2018-09-21T17:41:29.525Z,18.10
2018-09-21T17:43:58.554Z,18.00
2018-09-21T17:46:27.417Z,17.50
2018-09-21T17:48:56.388Z,17.90
2018-09-21T17:51:25.283Z,17.60
2018-09-21T17:53:54.125Z,17.90
2018-09-21T17:56:23.074Z,17.40
2018-09-21T17:58:52.077Z,17.60
2018-09-21T18:01:20.951Z,18.40
2018-09-21T18:03:49.898Z,18.30
2018-09-21T18:06:18.650Z,17.50
2018-09-21T18:08:47.451Z,18.00
2018-09-21T18:11:16.374Z,19.60
2018-09-21T18:13:45.261Z,18.80
2018-09-21T18:16:14.045Z,18.30
2018-09-21T18:18:42.906Z,18.00
2018-09-21T18:21:11.693Z,18.10
2018-09-21T18:23:40.358Z,18.40
2018-09-21T18:26:09.336Z,17.80
2018-09-21T18:28:38.142Z,18.00
2018-09-21T18:31:06.871Z,17.80
2018-09-21T18:33:35.726Z,17.40
2018-09-21T18:36:04.494Z,18.10
2018-09-21T18:38:33.263Z,18.40
2018-09-21T18:41:02.043Z,19.10
2018-09-21T18:43:30.885Z,20.30
2018-09-21T18:46:00.118Z,19.60
2018-09-21T18:48:28.933Z,19.70
2018-09-21T18:50:57.922Z,19.40
2018-09-21T18:53:26.670Z,19.60
2018-09-21T18:55:55.533Z,19.40
2018-09-21T18:58:24.569Z,18.60
2018-09-21T19:00:53.512Z,18.50
2018-09-21T19:03:22.599Z,18.70
2018-09-21T19:05:51.569Z,18.20
2018-09-21T19:08:20.646Z,18.10
2018-09-21T19:10:49.625Z,17.60
2018-09-21T19:13:18.793Z,17.40
2018-09-21T19:15:47.847Z,17.10
2018-09-21T19:18:16.937Z,17.50
2018-09-21T19:20:46.662Z,16.70
2018-09-21T19:23:15.749Z,17.30
2018-09-21T19:25:44.558Z,17.40
2018-09-21T19:28:13.614Z,17.60
2018-09-21T19:30:42.561Z,17.40
2018-09-21T19:33:11.399Z,17.70
2018-09-21T19:35:40.202Z,18.40
2018-09-21T19:38:09.073Z,17.70
2018-09-21T19:40:38.005Z,17.90
2018-09-21T19:43:07.179Z,17.70
2018-09-21T19:45:35.904Z,17.70
2018-09-21T19:48:04.784Z,18.60
2018-09-21T19:50:33.597Z,17.50
2018-09-21T19:53:02.607Z,17.20
2018-09-21T19:55:31.410Z,17.20
2018-09-21T19:58:00.344Z,18.00
2018-09-21T20:00:29.301Z,17.60
2018-09-21T20:02:58.162Z,18.40
2018-09-21T20:05:27.029Z,18.20
2018-09-21T20:07:55.990Z,17.20
2018-09-21T20:10:24.891Z,17.30
2018-09-21T20:12:53.777Z,16.80
2018-09-21T20:15:22.790Z,17.20
2018-09-21T20:17:51.914Z,17.40
2018-09-21T20:20:21.257Z,17.70
2018-09-21T20:22:50.350Z,16.80
2018-09-21T20:25:19.379Z,16.90
2018-09-21T20:27:48.594Z,17.70
2018-09-21T20:30:22.886Z,17.50
2018-09-21T20:32:57.221Z,17.50
2018-09-21T20:35:26.265Z,17.30
2018-09-21T20:37:55.134Z,17.20
2018-09-21T20:40:23.937Z,17.30
2018-09-21T20:42:52.885Z,17.00
2018-09-21T20:45:21.898Z,16.50
2018-09-21T20:47:51.101Z,16.80
2018-09-21T20:50:20.067Z,17.20
2018-09-21T20:52:49.065Z,17.30
2018-09-21T20:55:18.044Z,16.90
2018-09-21T20:57:47.931Z,17.10
2018-09-21T21:00:16.758Z,16.60
2018-09-21T21:02:45.968Z,17.00
2018-09-21T21:05:15.030Z,16.50
2018-09-21T21:07:43.886Z,17.20
2018-09-21T21:10:12.890Z,16.90
2018-09-21T21:12:41.777Z,17.20
2018-09-21T21:15:10.876Z,16.70
2018-09-21T21:17:39.958Z,16.30
2018-09-21T21:20:09.062Z,16.70
2018-09-21T21:22:37.905Z,16.60
2018-09-21T21:25:06.995Z,16.50
2018-09-21T21:27:35.865Z,16.60
2018-09-21T21:30:04.910Z,16.60
2018-09-21T21:32:34.015Z,16.30
2018-09-21T21:35:02.830Z,16.20
2018-09-21T21:37:32.127Z,17.10
2018-09-21T21:40:01.323Z,17.40
2018-09-21T21:42:30.117Z,17.40
2018-09-21T21:44:59.507Z,17.20
2018-09-21T21:47:28.398Z,16.20
2018-09-21T21:49:57.324Z,16.30
2018-09-21T21:52:26.360Z,16.60
2018-09-21T21:54:55.230Z,16.30
2018-09-21T21:57:24.262Z,16.40
2018-09-21T21:59:53.254Z,17.00
2018-09-21T22:02:22.131Z,16.30
2018-09-21T22:04:51.066Z,16.20
2018-09-21T22:07:20.083Z,15.80
2018-09-21T22:09:49.057Z,16.40
2018-09-21T22:12:23.343Z,16.90
2018-09-21T22:14:52.297Z,15.90
2018-09-21T22:17:21.238Z,16.00
2018-09-21T22:19:50.106Z,16.40
2018-09-21T22:22:19.430Z,16.10
2018-09-21T22:24:48.315Z,15.70
2018-09-21T22:27:17.317Z,16.40
2018-09-21T22:29:46.118Z,15.80
2018-09-21T22:32:15.109Z,15.70
2018-09-21T22:34:44.017Z,15.80
2018-09-21T22:37:12.962Z,15.60
2018-09-21T22:39:41.730Z,16.00
2018-09-21T22:42:10.578Z,16.50
2018-09-21T22:44:39.318Z,16.40
2018-09-21T22:47:08.426Z,16.60
2018-09-21T22:49:37.253Z,16.50
2018-09-21T22:52:06.022Z,16.30
2018-09-21T22:54:34.801Z,16.40
2018-09-21T22:57:03.494Z,15.40
2018-09-21T22:59:32.270Z,16.10
2018-09-21T23:02:01.242Z,16.30
2018-09-21T23:04:30.222Z,15.70
2018-09-21T23:06:59.155Z,15.80
2018-09-21T23:09:28.133Z,16.40
2018-09-21T23:11:57.034Z,16.30
2018-09-21T23:14:25.929Z,16.20
2018-09-21T23:16:54.825Z,15.90
2018-09-21T23:19:23.749Z,15.70
2018-09-21T23:21:52.749Z,15.20
2018-09-21T23:24:21.909Z,15.20
2018-09-21T23:26:50.882Z,15.60
2018-09-21T23:29:19.972Z,15.40
2018-09-21T23:31:48.975Z,15.40
2018-09-21T23:34:17.933Z,16.20
2018-09-21T23:36:47.015Z,16.40
2018-09-21T23:39:16.673Z,16.20
2018-09-21T23:41:45.589Z,16.10
2018-09-21T23:44:14.526Z,16.30
2018-09-21T23:46:43.362Z,16.60
2018-09-21T23:49:12.282Z,16.90
2018-09-21T23:51:41.258Z,15.50
2018-09-21T23:54:09.930Z,15.80
2018-09-21T23:56:38.914Z,15.60
2018-09-21T23:59:07.641Z,15.50
